createdAt,value
2023-02-28T00:01:16.480Z,-3.86
2023-02-28T00:06:18.841Z,-3.86
2023-02-28T00:11:21.205Z,-3.86
2023-02-28T00:16:23.916Z,-3.88
2023-02-28T00:21:33.462Z,-4.01
2023-02-28T00:26:36.612Z,-4.05
2023-02-28T00:31:40.332Z,-4.02
2023-02-28T00:36:46.432Z,-4.05
2023-02-28T00:41:49.826Z,-4.04
2023-02-28T00:46:54.975Z,-4.15
2023-02-28T00:51:58.182Z,-4.14
2023-02-28T00:57:00.560Z,-4.25
2023-02-28T01:02:03.736Z,-4.30
2023-02-28T01:07:06.141Z,-4.30
2023-02-28T01:12:08.781Z,-4.31
2023-02-28T01:17:11.824Z,-4.36
2023-02-28T01:22:18.605Z,-4.39
2023-02-28T01:27:22.524Z,-4.42
2023-02-28T01:32:25.482Z,-4.48
2023-02-28T01:37:28.409Z,-4.54
2023-02-28T01:42:31.197Z,-4.52
2023-02-28T01:47:34.053Z,-4.55
2023-02-28T01:52:37.072Z,-4.60
2023-02-28T01:57:39.691Z,-4.64
2023-02-28T02:02:42.545Z,-4.68
2023-02-28T02:07:45.994Z,-4.68
2023-02-28T02:12:48.692Z,-4.63
2023-02-28T02:17:53.507Z,-4.71
2023-02-28T02:22:56.452Z,-4.71
2023-02-28T02:27:59.399Z,-4.72
2023-02-28T02:33:05.107Z,-4.74
2023-02-28T02:38:07.671Z,-4.71
2023-02-28T02:43:10.158Z,-4.74
2023-02-28T02:48:15.488Z,-4.74
2023-02-28T02:53:20.267Z,-4.77
2023-02-28T02:58:22.992Z,-4.76
2023-02-28T03:03:29.842Z,-4.75
2023-02-28T03:08:33.343Z,-4.76
2023-02-28T03:13:35.943Z,-4.77
2023-02-28T03:18:48.473Z,-4.78
2023-02-28T03:23:52.117Z,-4.77
2023-02-28T03:28:57.934Z,-4.74
2023-02-28T03:34:00.762Z,-4.67
2023-02-28T03:39:04.696Z,-4.57
2023-02-28T03:44:07.572Z,-4.49
2023-02-28T03:49:10.174Z,-4.49
2023-02-28T03:54:13.805Z,-4.57
2023-02-28T03:59:16.916Z,-4.66
2023-02-28T04:04:19.256Z,-4.64
2023-02-28T04:09:22.357Z,-4.64
2023-02-28T04:14:24.757Z,-4.63
2023-02-28T04:19:27.947Z,-4.63
2023-02-28T04:24:31.089Z,-4.53
2023-02-28T04:29:35.199Z,-4.44
2023-02-28T04:34:37.544Z,-4.39
2023-02-28T04:39:39.854Z,-4.29
2023-02-28T04:44:42.620Z,-4.22
2023-02-28T04:49:44.994Z,-4.14
2023-02-28T04:54:52.331Z,-4.08
2023-02-28T04:59:55.456Z,-4.03
2023-02-28T05:04:59.131Z,-4.01
2023-02-28T05:10:03.140Z,-3.91
2023-02-28T05:15:15.959Z,-3.82
2023-02-28T05:20:20.325Z,-3.79
2023-02-28T05:25:23.671Z,-3.71
2023-02-28T05:30:28.164Z,-3.78
2023-02-28T05:35:34.873Z,-3.76
2023-02-28T05:40:37.854Z,-3.79
2023-02-28T05:45:41.150Z,-3.75
2023-02-28T05:50:45.800Z,-3.59
2023-02-28T05:55:48.633Z,-3.61
2023-02-28T06:00:51.763Z,-3.63
2023-02-28T06:05:54.186Z,-3.61
2023-02-28T06:11:03.081Z,-3.60
2023-02-28T06:16:06.633Z,-3.63
2023-02-28T06:21:10.507Z,-3.73
2023-02-28T06:26:13.746Z,-3.62
2023-02-28T06:31:16.570Z,-3.62
2023-02-28T06:36:19.464Z,-3.63
2023-02-28T06:41:22.782Z,-3.47
2023-02-28T06:46:25.468Z,-3.43
2023-02-28T06:51:28.307Z,-3.36
2023-02-28T06:56:31.394Z,-3.34
2023-02-28T07:01:34.296Z,-3.35
2023-02-28T07:06:36.943Z,-3.27
2023-02-28T07:11:39.396Z,-3.31
2023-02-28T07:16:42.735Z,-3.13
2023-02-28T07:21:45.228Z,-3.40
2023-02-28T07:26:47.490Z,-3.35
2023-02-28T07:31:51.588Z,-3.11
2023-02-28T07:36:54.442Z,-2.99
2023-02-28T07:41:57.762Z,-3.00
2023-02-28T07:47:00.163Z,-2.99
2023-02-28T07:52:02.492Z,-3.01
2023-02-28T07:57:05.218Z,-2.74
2023-02-28T08:02:07.658Z,-2.76
2023-02-28T08:07:14.055Z,-2.91
2023-02-28T08:12:16.521Z,-3.07
2023-02-28T08:17:19.100Z,-3.00
2023-02-28T08:22:21.589Z,-2.87
2023-02-28T08:27:23.927Z,-2.90
2023-02-28T08:32:30.064Z,-2.86
2023-02-28T08:37:32.959Z,-2.55
2023-02-28T08:42:35.681Z,-2.64
2023-02-28T08:47:38.777Z,-2.62
2023-02-28T08:52:41.433Z,-2.31
2023-02-28T08:57:44.524Z,-2.44
2023-02-28T09:02:46.916Z,-1.99
2023-02-28T09:07:49.464Z,-1.94
2023-02-28T09:12:52.001Z,-2.01
2023-02-28T09:17:55.183Z,-2.12
2023-02-28T09:22:57.980Z,-1.97
2023-02-28T09:28:00.939Z,-1.92
2023-02-28T09:33:03.508Z,-1.56
2023-02-28T09:38:08.501Z,-1.39
2023-02-28T09:43:10.975Z,-1.35
2023-02-28T09:48:14.370Z,-1.73
2023-02-28T09:53:16.693Z,-1.37
2023-02-28T09:58:19.328Z,-1.46
2023-02-28T10:03:21.628Z,-1.63
2023-02-28T10:08:26.288Z,-1.31
2023-02-28T10:13:28.990Z,-1.03
2023-02-28T10:18:32.195Z,-0.88
2023-02-28T10:23:34.650Z,-0.91
2023-02-28T10:28:37.313Z,-1.11
2023-02-28T10:33:39.663Z,-0.99
2023-02-28T10:38:42.036Z,-0.99
2023-02-28T10:43:45.886Z,-1.06
2023-02-28T10:48:50.103Z,-1.28
2023-02-28T10:54:01.163Z,-1.03
2023-02-28T10:59:06.308Z,-0.90
2023-02-28T11:04:08.844Z,-0.80
2023-02-28T11:09:14.272Z,-0.80
2023-02-28T11:14:16.994Z,-0.89
2023-02-28T11:19:20.094Z,-0.72
2023-02-28T11:24:25.023Z,-0.57
2023-02-28T11:29:27.516Z,-0.10
2023-02-28T11:34:29.882Z,-0.39
2023-02-28T11:39:32.581Z,0.10
2023-02-28T11:44:35.753Z,-0.07
2023-02-28T11:49:39.695Z,-0.16
2023-02-28T11:54:42.500Z,-0.01
2023-02-28T11:59:54.823Z,0.24
2023-02-28T12:05:09.228Z,0.53
2023-02-28T12:10:12.996Z,0.58
2023-02-28T12:15:15.324Z,0.98
2023-02-28T12:20:18.447Z,1.03
2023-02-28T12:25:21.624Z,0.61
2023-02-28T12:30:24.820Z,0.42
2023-02-28T12:35:28.227Z,0.66
2023-02-28T12:40:31.473Z,1.20
2023-02-28T12:45:34.501Z,1.21
2023-02-28T12:50:37.655Z,1.11
2023-02-28T12:55:40.365Z,1.24
2023-02-28T13:00:42.990Z,1.33
2023-02-28T13:05:46.069Z,1.05
2023-02-28T13:10:54.813Z,1.44
2023-02-28T13:15:57.984Z,1.95
2023-02-28T13:21:00.299Z,1.80
2023-02-28T13:26:03.957Z,1.44
2023-02-28T13:31:07.117Z,1.99
2023-02-28T13:36:10.273Z,1.92
2023-02-28T13:41:12.713Z,1.57
2023-02-28T13:46:15.152Z,1.81
2023-02-28T13:51:17.509Z,1.53
2023-02-28T13:56:20.201Z,1.76
2023-02-28T14:01:23.342Z,1.87
2023-02-28T14:06:35.767Z,1.63
2023-02-28T14:11:38.132Z,1.55
2023-02-28T14:16:41.100Z,1.55
2023-02-28T14:21:43.478Z,1.67
2023-02-28T14:26:47.082Z,1.59
2023-02-28T14:31:51.522Z,1.33
2023-02-28T14:36:53.980Z,1.46
2023-02-28T14:41:56.703Z,1.50
2023-02-28T14:46:59.827Z,1.53
2023-02-28T14:52:02.188Z,1.78
2023-02-28T14:57:12.275Z,1.74
2023-02-28T15:02:15.402Z,1.46
2023-02-28T15:07:18.480Z,1.30
2023-02-28T15:12:20.863Z,1.41
2023-02-28T15:17:23.211Z,1.34
2023-02-28T15:22:26.370Z,1.29
2023-02-28T15:27:28.808Z,1.32
2023-02-28T15:32:31.231Z,1.37
2023-02-28T15:37:34.567Z,1.38
2023-02-28T15:42:47.317Z,1.44
2023-02-28T15:47:49.957Z,1.38
2023-02-28T15:52:52.346Z,1.40
2023-02-28T15:57:55.233Z,1.41
2023-02-28T16:02:57.754Z,1.33
2023-02-28T16:08:00.324Z,1.37
2023-02-28T16:13:02.680Z,1.17
2023-02-28T16:18:05.091Z,1.04
2023-02-28T16:23:09.140Z,0.91
2023-02-28T16:28:11.790Z,0.84
2023-02-28T16:33:14.734Z,0.82
2023-02-28T16:38:17.572Z,0.77
2023-02-28T16:43:22.178Z,0.59
2023-02-28T16:48:24.899Z,0.59
2023-02-28T16:53:28.724Z,0.49
2023-02-28T16:58:31.808Z,0.53
2023-02-28T17:03:34.464Z,0.42
2023-02-28T17:08:37.595Z,0.31
2023-02-28T17:13:39.978Z,0.17
2023-02-28T17:18:42.395Z,0.05
2023-02-28T17:23:45.627Z,-0.02
2023-02-28T17:28:48.540Z,-0.03
2023-02-28T17:33:51.095Z,0.32
2023-02-28T17:38:56.300Z,0.45
2023-02-28T17:44:00.166Z,0.57
2023-02-28T17:49:04.413Z,0.57
2023-02-28T17:54:08.136Z,0.54
2023-02-28T17:59:11.330Z,0.62
2023-02-28T18:04:13.929Z,0.67
2023-02-28T18:09:16.392Z,0.68
2023-02-28T18:14:18.681Z,0.73
2023-02-28T18:19:21.226Z,0.72
2023-02-28T18:24:24.973Z,0.73
2023-02-28T18:29:28.408Z,0.70
2023-02-28T18:34:31.324Z,0.75
2023-02-28T18:39:33.732Z,0.71
2023-02-28T18:44:36.022Z,0.70
2023-02-28T18:49:38.327Z,0.62
2023-02-28T18:54:40.672Z,0.60
2023-02-28T18:59:43.118Z,0.67
2023-02-28T19:04:46.192Z,0.70
2023-02-28T19:09:48.482Z,0.62
2023-02-28T19:14:51.724Z,0.67
2023-02-28T19:19:54.144Z,0.61
2023-02-28T19:24:56.939Z,0.56
2023-02-28T19:29:59.754Z,0.49
2023-02-28T19:35:02.774Z,0.46
2023-02-28T19:40:05.449Z,0.44
2023-02-28T19:45:09.927Z,0.30
2023-02-28T19:50:13.183Z,0.34
2023-02-28T19:55:15.628Z,0.32
2023-02-28T20:00:18.950Z,0.25
2023-02-28T20:05:31.332Z,0.26
2023-02-28T20:10:33.665Z,0.26
2023-02-28T20:15:41.643Z,0.30
2023-02-28T20:20:45.178Z,0.32
2023-02-28T20:25:54.125Z,0.33
2023-02-28T20:30:56.806Z,0.31
2023-02-28T20:35:59.924Z,0.30
2023-02-28T20:41:02.450Z,0.32
2023-02-28T20:46:04.898Z,0.26
2023-02-28T20:51:07.592Z,0.19
2023-02-28T20:56:09.995Z,0.19
2023-02-28T21:01:15.881Z,0.20
2023-02-28T21:06:18.866Z,0.18
2023-02-28T21:11:22.021Z,0.21
2023-02-28T21:16:24.404Z,0.22
2023-02-28T21:21:27.612Z,0.19
2023-02-28T21:26:30.566Z,0.24
2023-02-28T21:31:35.177Z,0.09
2023-02-28T21:36:37.520Z,0.07
2023-02-28T21:41:39.864Z,0.13
2023-02-28T21:46:42.214Z,0.08
2023-02-28T21:51:45.436Z,0.09
2023-02-28T21:56:47.776Z,0.09
2023-02-28T22:01:50.854Z,0.09
2023-02-28T22:06:54.069Z,0.13
2023-02-28T22:11:57.198Z,-0.01
2023-02-28T22:17:00.731Z,-0.07
2023-02-28T22:22:03.271Z,-0.04
2023-02-28T22:27:06.777Z,-0.02
2023-02-28T22:32:11.109Z,-0.07
2023-02-28T22:37:14.505Z,-0.14
2023-02-28T22:42:17.100Z,-0.13
2023-02-28T22:47:19.535Z,-0.08
2023-02-28T22:52:22.228Z,-0.13
2023-02-28T22:57:25.516Z,-0.15
2023-02-28T23:02:28.284Z,-0.17
2023-02-28T23:07:31.844Z,-0.17
2023-02-28T23:12:34.540Z,-0.23
2023-02-28T23:17:37.044Z,-0.17
2023-02-28T23:22:40.262Z,-0.15
2023-02-28T23:27:42.646Z,-0.16
2023-02-28T23:32:45.669Z,-0.12
2023-02-28T23:37:48.050Z,-0.16
2023-02-28T23:42:51.084Z,-0.16
2023-02-28T23:47:55.439Z,-0.25
2023-02-28T23:52:58.040Z,-0.27
2023-02-28T23:58:01.363Z,-0.23
